Terminal Aerodrome Forecast
Issued by NWS

Home | Current Version | Previous Version | Text Only | Print | Product List | Glossary On
Versions: 1 2 3 4 5 6 7 8 9 10 11 12 13 14 15 16 17 18
000
FTUS44 KLZK 230500
TAFLIT
TAF
KLIT 230537Z 2306/2406 14006KT P6SM SCT035 BKN040 WS020/18035KT
     FM230800 13008KT 5SM -RA BR VCTS SCT015 BKN025CB WS020/17040KT
     FM231100 14008KT 4SM -RA BR VCTS BKN008CB OVC015 WS020/18035KT
     FM231800 21011KT P6SM VCSH SCT012 BKN025
     FM240000 19010G16KT P6SM SCT025 BKN040=

USA.gov is the U.S. government's official web portal to all federal, state and local government web resources and services.